createdAt,value
2022-11-26T00:02:21.072Z,15.63
2022-11-26T00:05:13.293Z,14.33
2022-11-26T00:08:00.865Z,13.37
2022-11-26T00:10:51.364Z,14.40
2022-11-26T00:13:37.686Z,13.73
2022-11-26T00:16:24.023Z,9.23
2022-11-26T00:19:10.781Z,13.87
2022-11-26T00:21:57.263Z,13.80
2022-11-26T00:24:43.619Z,11.90
2022-11-26T00:27:29.927Z,14.07
2022-11-26T00:30:22.243Z,9.67
2022-11-26T00:33:08.672Z,8.57
2022-11-26T00:35:59.154Z,11.43
2022-11-26T00:38:53.735Z,14.10
2022-11-26T00:41:40.056Z,14.37
2022-11-26T00:44:26.358Z,13.07
2022-11-26T00:47:12.630Z,6.83
2022-11-26T00:49:58.936Z,8.07
2022-11-26T00:52:46.924Z,8.03
2022-11-26T00:55:34.648Z,10.63
2022-11-26T00:58:24.044Z,12.70
2022-11-26T01:01:13.560Z,6.10
2022-11-26T01:03:59.897Z,9.13
2022-11-26T01:06:46.875Z,7.67
2022-11-26T01:09:33.215Z,11.07
2022-11-26T01:12:19.552Z,8.53
2022-11-26T01:15:06.124Z,14.60
2022-11-26T01:17:53.462Z,9.30
2022-11-26T01:20:40.497Z,10.70
2022-11-26T01:23:26.846Z,11.87
2022-11-26T01:26:34.642Z,13.10
2022-11-26T01:29:21.305Z,10.53
2022-11-26T01:32:09.245Z,12.80
2022-11-26T01:34:55.329Z,8.77
2022-11-26T01:37:43.193Z,8.10
2022-11-26T01:40:45.289Z,9.73
2022-11-26T01:43:41.895Z,8.70
2022-11-26T01:46:30.793Z,10.13
2022-11-26T01:49:18.840Z,11.60
2022-11-26T01:52:11.336Z,8.13
2022-11-26T01:54:57.819Z,8.77
2022-11-26T01:57:44.643Z,10.17
2022-11-26T02:00:31.021Z,10.83
2022-11-26T02:03:19.323Z,7.27
2022-11-26T02:06:11.059Z,8.97
2022-11-26T02:09:00.428Z,9.37
2022-11-26T02:11:46.996Z,10.13
2022-11-26T02:14:36.921Z,7.33
2022-11-26T02:17:40.027Z,9.30
2022-11-26T02:20:45.060Z,9.90
2022-11-26T02:23:42.737Z,8.77
2022-11-26T02:26:47.469Z,13.70
2022-11-26T02:29:55.140Z,13.30
2022-11-26T02:32:59.223Z,13.13
2022-11-26T02:35:50.308Z,12.70
2022-11-26T02:38:38.233Z,13.30
2022-11-26T02:41:24.801Z,8.17
2022-11-26T02:44:12.120Z,9.80
2022-11-26T02:47:06.260Z,11.57
2022-11-26T02:49:54.097Z,9.27
2022-11-26T02:52:42.591Z,11.83
2022-11-26T02:55:33.621Z,11.53
2022-11-26T02:58:20.486Z,11.10
2022-11-26T03:01:15.571Z,11.97
2022-11-26T03:04:07.840Z,11.87
2022-11-26T03:06:57.661Z,8.53
2022-11-26T03:09:56.821Z,9.40
2022-11-26T03:12:42.944Z,10.47
2022-11-26T03:15:29.087Z,13.40
2022-11-26T03:18:15.621Z,7.23
2022-11-26T03:21:02.112Z,7.27
2022-11-26T03:23:48.321Z,8.67
2022-11-26T03:26:34.568Z,9.73
2022-11-26T03:29:20.890Z,6.93
2022-11-26T03:32:07.924Z,10.07
2022-11-26T03:34:54.299Z,10.03
2022-11-26T03:37:40.598Z,8.37
2022-11-26T03:40:26.832Z,6.17
2022-11-26T03:43:12.908Z,12.97
2022-11-26T03:45:59.340Z,11.83
2022-11-26T03:48:45.901Z,19.97
2022-11-26T03:51:32.462Z,5.97
2022-11-26T03:54:19.087Z,7.83
2022-11-26T03:57:05.349Z,7.97
2022-11-26T03:59:51.681Z,14.27
2022-11-26T04:02:37.973Z,7.00
2022-11-26T04:05:24.489Z,22.23
2022-11-26T04:08:10.974Z,10.33
2022-11-26T04:10:57.597Z,8.17
2022-11-26T04:13:43.909Z,10.63
2022-11-26T04:16:30.256Z,11.93
2022-11-26T04:19:16.683Z,8.37
2022-11-26T04:22:03.151Z,8.13
2022-11-26T04:24:49.559Z,8.40
2022-11-26T04:27:35.895Z,10.00
2022-11-26T04:30:22.900Z,11.70
2022-11-26T04:33:09.740Z,7.67
2022-11-26T04:35:56.389Z,10.50
2022-11-26T04:38:42.637Z,12.13
2022-11-26T04:41:28.897Z,7.67
2022-11-26T04:44:15.177Z,7.07
2022-11-26T04:47:01.449Z,10.57
2022-11-26T04:49:47.816Z,9.67
2022-11-26T04:52:33.936Z,9.57
2022-11-26T04:55:20.240Z,8.13
2022-11-26T04:58:07.140Z,12.60
2022-11-26T05:00:53.486Z,13.13
2022-11-26T05:03:40.079Z,9.33
2022-11-26T05:06:26.417Z,14.40
2022-11-26T05:09:12.438Z,13.27
2022-11-26T05:11:58.673Z,12.97
2022-11-26T05:14:44.866Z,12.27
2022-11-26T05:17:31.488Z,9.43
2022-11-26T05:20:17.984Z,11.87
2022-11-26T05:23:04.639Z,12.00
2022-11-26T05:25:51.342Z,10.50
2022-11-26T05:28:37.824Z,11.67
2022-11-26T05:31:24.025Z,10.13
2022-11-26T05:34:10.359Z,9.50
2022-11-26T05:36:56.808Z,11.77
2022-11-26T05:39:43.013Z,11.23
2022-11-26T05:42:29.470Z,26.00
2022-11-26T05:45:16.502Z,11.07
2022-11-26T05:48:02.816Z,15.90
2022-11-26T05:50:54.331Z,11.17
2022-11-26T05:53:41.152Z,15.20
2022-11-26T05:56:27.585Z,11.67
2022-11-26T05:59:13.793Z,11.17
2022-11-26T06:02:00.126Z,10.80
2022-11-26T06:04:46.772Z,10.57
2022-11-26T06:07:33.132Z,11.93
2022-11-26T06:10:19.809Z,10.47
2022-11-26T06:13:06.224Z,17.57
2022-11-26T06:15:52.649Z,13.10
2022-11-26T06:18:39.622Z,15.87
2022-11-26T06:21:25.879Z,16.67
2022-11-26T06:24:11.963Z,16.87
2022-11-26T06:26:58.183Z,16.80
2022-11-26T06:29:44.995Z,30.20
2022-11-26T06:32:31.853Z,18.97
2022-11-26T06:35:18.329Z,26.97
2022-11-26T06:38:05.124Z,31.87
2022-11-26T06:41:02.916Z,23.27
2022-11-26T06:43:49.660Z,11.27
2022-11-26T06:46:36.447Z,11.47
2022-11-26T06:49:22.800Z,20.50
2022-11-26T06:52:09.340Z,18.90
2022-11-26T06:54:55.462Z,31.43
2022-11-26T06:57:41.699Z,33.73
2022-11-26T07:00:28.070Z,12.67
2022-11-26T07:03:14.324Z,21.43
2022-11-26T07:06:00.680Z,18.70
2022-11-26T07:08:48.095Z,28.00
2022-11-26T07:11:35.669Z,18.37
2022-11-26T07:14:22.627Z,21.83
2022-11-26T07:17:09.537Z,18.93
2022-11-26T07:19:55.732Z,31.13
2022-11-26T07:22:41.984Z,25.53
2022-11-26T07:25:29.707Z,25.07
2022-11-26T07:28:16.241Z,22.40
2022-11-26T07:31:16.245Z,19.83
2022-11-26T07:34:03.895Z,18.10
2022-11-26T07:36:53.973Z,11.87
2022-11-26T07:39:43.049Z,11.63
2022-11-26T07:42:33.676Z,17.50
2022-11-26T07:45:20.261Z,15.83
2022-11-26T07:48:06.989Z,19.13
2022-11-26T07:50:53.377Z,18.60
2022-11-26T07:53:39.642Z,19.03
2022-11-26T07:56:27.161Z,22.60
2022-11-26T07:59:13.668Z,20.37
2022-11-26T08:02:00.261Z,24.20
2022-11-26T08:04:47.078Z,23.93
2022-11-26T08:07:35.038Z,18.47
2022-11-26T08:10:21.656Z,20.73
2022-11-26T08:13:08.197Z,21.63
2022-11-26T08:15:54.477Z,27.50
2022-11-26T08:18:41.975Z,20.90
2022-11-26T08:21:28.811Z,19.87
2022-11-26T08:24:18.919Z,20.13
2022-11-26T08:27:05.482Z,18.23
2022-11-26T08:29:51.921Z,20.23
2022-11-26T08:32:38.203Z,18.37
2022-11-26T08:35:38.626Z,21.57
2022-11-26T08:38:31.583Z,18.83
2022-11-26T08:41:18.119Z,21.10
2022-11-26T08:44:07.083Z,21.47
2022-11-26T08:46:54.286Z,23.00
2022-11-26T08:49:40.785Z,27.50
2022-11-26T08:52:27.495Z,21.90
2022-11-26T08:55:14.107Z,16.07
2022-11-26T08:58:00.687Z,20.87
2022-11-26T09:00:47.263Z,18.17
2022-11-26T09:03:33.518Z,15.23
2022-11-26T09:06:21.312Z,16.00
2022-11-26T09:09:15.057Z,15.47
2022-11-26T09:12:02.469Z,18.50
2022-11-26T09:14:49.069Z,19.57
2022-11-26T09:17:35.633Z,18.13
2022-11-26T09:20:22.304Z,21.30
2022-11-26T09:23:08.743Z,28.30
2022-11-26T09:25:55.422Z,23.43
2022-11-26T09:28:41.773Z,24.27
2022-11-26T09:31:28.327Z,14.70
2022-11-26T09:34:15.808Z,18.17
2022-11-26T09:37:02.574Z,18.03
2022-11-26T09:39:50.745Z,20.80
2022-11-26T09:42:59.234Z,14.53
2022-11-26T09:45:55.701Z,17.13
2022-11-26T09:48:43.265Z,18.73
2022-11-26T09:51:32.848Z,14.93
2022-11-26T09:54:23.038Z,17.40
2022-11-26T09:57:21.998Z,12.13
2022-11-26T10:00:32.774Z,15.73
2022-11-26T10:03:24.468Z,11.87
2022-11-26T10:06:19.801Z,11.63
2022-11-26T10:09:23.364Z,13.77
2022-11-26T10:12:25.534Z,13.23
2022-11-26T10:15:26.118Z,16.53
2022-11-26T10:18:42.384Z,13.33
2022-11-26T10:21:57.007Z,11.00
2022-11-26T10:24:42.010Z,19.03
2022-11-26T10:27:34.297Z,9.53
2022-11-26T10:30:30.689Z,10.40
2022-11-26T10:33:20.248Z,13.10
2022-11-26T10:36:16.446Z,12.70
2022-11-26T10:39:03.310Z,9.77
2022-11-26T10:41:50.156Z,10.57
2022-11-26T10:44:40.785Z,10.33
2022-11-26T10:47:29.827Z,14.00
2022-11-26T10:50:46.782Z,10.87
2022-11-26T10:54:00.630Z,15.50
2022-11-26T10:56:47.806Z,10.43
2022-11-26T10:59:43.447Z,13.17
2022-11-26T11:02:32.377Z,9.80
2022-11-26T11:05:20.374Z,8.57
2022-11-26T11:08:13.042Z,7.20
2022-11-26T11:11:02.392Z,10.43
2022-11-26T11:13:49.784Z,12.73
2022-11-26T11:16:43.253Z,7.87
2022-11-26T11:19:30.733Z,7.93
2022-11-26T11:22:20.985Z,10.27
2022-11-26T11:25:21.900Z,16.60
2022-11-26T11:28:18.366Z,12.10
2022-11-26T11:31:17.979Z,10.03
2022-11-26T11:34:33.885Z,12.53
2022-11-26T11:37:21.859Z,19.93
2022-11-26T11:40:18.139Z,18.03
2022-11-26T11:43:06.976Z,7.73
2022-11-26T11:46:13.547Z,15.70
2022-11-26T11:49:16.210Z,8.57
2022-11-26T11:52:35.711Z,12.00
2022-11-26T11:56:02.700Z,10.10
2022-11-26T11:59:47.495Z,7.30
2022-11-26T12:03:04.882Z,9.70
2022-11-26T12:06:00.505Z,14.17
2022-11-26T12:08:55.786Z,8.03
2022-11-26T12:11:52.112Z,7.03
2022-11-26T12:14:47.720Z,6.90
2022-11-26T12:17:43.666Z,6.17
2022-11-26T12:20:41.704Z,13.37
2022-11-26T12:23:53.512Z,7.37
2022-11-26T12:26:39.892Z,6.13
2022-11-26T12:29:36.961Z,8.80
2022-11-26T12:32:49.325Z,7.97
2022-11-26T12:35:40.128Z,7.07
2022-11-26T12:38:34.896Z,7.53
2022-11-26T12:41:27.355Z,3.37
2022-11-26T12:44:22.330Z,5.63
2022-11-26T12:47:26.056Z,6.93
2022-11-26T12:50:20.854Z,8.77
2022-11-26T12:53:51.720Z,5.57
2022-11-26T12:56:50.924Z,8.37
2022-11-26T12:59:44.098Z,16.63
2022-11-26T13:02:32.000Z,6.47
2022-11-26T13:05:20.802Z,6.23
2022-11-26T13:08:26.485Z,7.73
2022-11-26T13:11:31.333Z,10.03
2022-11-26T13:14:35.146Z,8.73
2022-11-26T13:17:37.159Z,4.17
2022-11-26T13:20:52.420Z,12.00
2022-11-26T13:23:50.609Z,5.37
2022-11-26T13:26:45.904Z,11.37
2022-11-26T13:29:35.678Z,5.37
2022-11-26T13:32:42.802Z,5.13
2022-11-26T13:35:51.210Z,8.27
2022-11-26T13:38:53.170Z,9.77
2022-11-26T13:42:14.821Z,4.70
2022-11-26T13:45:45.352Z,3.97
2022-11-26T13:48:40.428Z,6.87
2022-11-26T13:51:30.925Z,8.50
2022-11-26T13:54:41.905Z,5.30
2022-11-26T13:57:39.441Z,12.17
2022-11-26T14:00:33.667Z,6.40
2022-11-26T14:03:45.928Z,9.70
2022-11-26T14:06:32.768Z,5.20
2022-11-26T14:09:45.156Z,5.87
2022-11-26T14:13:02.758Z,8.23
2022-11-26T14:15:55.503Z,6.77
2022-11-26T14:19:02.816Z,13.53
2022-11-26T14:21:59.647Z,8.93
2022-11-26T14:24:58.926Z,9.67
2022-11-26T14:27:55.613Z,9.70
2022-11-26T14:30:41.748Z,6.17
2022-11-26T14:33:30.350Z,12.90
2022-11-26T14:36:23.000Z,5.73
2022-11-26T14:39:09.279Z,9.20
2022-11-26T14:42:03.815Z,9.30
2022-11-26T14:45:15.686Z,11.60
2022-11-26T14:48:03.943Z,8.50
2022-11-26T14:50:51.653Z,6.20
2022-11-26T14:53:46.803Z,7.17
2022-11-26T14:56:41.831Z,8.73
2022-11-26T14:59:31.935Z,6.00
2022-11-26T15:02:23.889Z,6.10
2022-11-26T15:05:15.183Z,15.43
2022-11-26T15:08:04.754Z,11.97
2022-11-26T15:11:21.371Z,7.43
2022-11-26T15:14:29.783Z,8.80
2022-11-26T15:17:19.251Z,6.13
2022-11-26T15:20:08.355Z,7.07
2022-11-26T15:22:58.290Z,11.93
2022-11-26T15:25:50.924Z,9.73
2022-11-26T15:28:38.682Z,13.07
2022-11-26T15:31:25.381Z,10.77
2022-11-26T15:34:15.268Z,9.77
2022-11-26T15:37:01.579Z,10.20
2022-11-26T15:39:47.829Z,14.10
2022-11-26T15:42:34.344Z,9.23
2022-11-26T15:45:23.038Z,9.67
2022-11-26T15:48:51.943Z,10.30
2022-11-26T15:51:49.956Z,8.77
2022-11-26T15:55:04.550Z,7.97
2022-11-26T15:57:51.729Z,11.90
2022-11-26T16:00:42.269Z,7.83
2022-11-26T16:03:41.325Z,9.17
2022-11-26T16:06:32.390Z,8.73
2022-11-26T16:09:34.348Z,9.10
2022-11-26T16:12:33.195Z,10.10
2022-11-26T16:15:21.020Z,9.10
2022-11-26T16:18:16.393Z,10.40
2022-11-26T16:21:07.298Z,27.20
2022-11-26T16:24:07.299Z,8.33
2022-11-26T16:26:58.248Z,12.97
2022-11-26T16:29:45.455Z,11.90
2022-11-26T16:32:31.772Z,9.93
2022-11-26T16:35:44.218Z,19.43
2022-11-26T16:38:26.524Z,8.63
2022-11-26T16:41:13.876Z,15.73
2022-11-26T16:44:00.273Z,12.60
2022-11-26T16:46:48.826Z,9.80
2022-11-26T16:49:35.015Z,11.00
2022-11-26T16:52:21.892Z,9.10
2022-11-26T16:55:13.735Z,10.40
2022-11-26T16:58:02.334Z,16.00
2022-11-26T17:00:51.099Z,12.60
2022-11-26T17:03:37.690Z,10.80
2022-11-26T17:06:27.872Z,12.23
2022-11-26T17:09:19.267Z,17.53
2022-11-26T17:12:06.509Z,14.53
2022-11-26T17:17:45.053Z,10.83
2022-11-26T17:20:31.483Z,11.53
2022-11-26T17:23:18.739Z,13.33
2022-11-26T17:26:31.688Z,12.40
2022-11-26T17:29:17.995Z,12.97
2022-11-26T17:32:04.992Z,14.97
2022-11-26T17:34:51.584Z,13.63
2022-11-26T17:37:38.206Z,11.37
2022-11-26T17:40:24.950Z,14.27
2022-11-26T17:43:13.273Z,14.53
2022-11-26T17:46:02.137Z,13.87
2022-11-26T17:48:49.960Z,13.97
2022-11-26T17:51:37.376Z,18.17
2022-11-26T17:54:23.559Z,15.00
2022-11-26T17:57:11.194Z,20.50
2022-11-26T17:59:57.876Z,20.57
2022-11-26T18:02:46.223Z,22.07
2022-11-26T18:05:33.061Z,20.93
2022-11-26T18:08:20.494Z,22.50
2022-11-26T18:11:06.844Z,16.47
2022-11-26T18:13:53.308Z,20.70
2022-11-26T18:16:40.188Z,19.10
2022-11-26T18:19:26.955Z,17.27
2022-11-26T18:22:16.704Z,13.73
2022-11-26T18:25:03.473Z,18.60
2022-11-26T18:27:51.299Z,17.70
2022-11-26T18:30:37.649Z,25.97
2022-11-26T18:33:24.245Z,17.37
2022-11-26T18:36:10.924Z,22.63
2022-11-26T18:38:57.634Z,22.70
2022-11-26T18:41:43.952Z,26.77
2022-11-26T18:44:30.341Z,26.90
2022-11-26T18:47:16.773Z,28.20
2022-11-26T18:50:03.680Z,35.90
2022-11-26T18:52:49.835Z,32.87
2022-11-26T18:55:39.924Z,24.67
2022-11-26T18:58:26.709Z,24.57
2022-11-26T19:01:14.255Z,23.90
2022-11-26T19:04:01.901Z,20.47
2022-11-26T19:06:48.276Z,21.63
2022-11-26T19:09:34.587Z,25.77
2022-11-26T19:12:20.855Z,24.40
2022-11-26T19:15:08.328Z,19.03
2022-11-26T19:17:55.082Z,22.10
2022-11-26T19:20:56.333Z,23.50
2022-11-26T19:23:42.976Z,26.37
